Wichita, KS (67277)

11:58 AM CST on December 07, 2016 (GMT -0600)
KMUW - Old Town | | Change Station

Elev 1322 ft 37.69 °N, 97.33 °W | Updated 3 seconds ago

Overcast
Overcast
33.4 °F
Feels Like 27 °F
N
7.6
Wind Variable Wind from NE
Gusts 9.8 mph

Today
High -- | Low -- °F
--% Chance of Precip.
Yesterday
High -- | Low -- °F
Precip. -- in
Pressure 30.30 in
Visibility 10.0 miles
Clouds Few 5500 ft
Overcast 7000 ft
Windchill 27 °F
Dew Point 12 °F
Humidity 40%
Rainfall in
Snow Depth Not available.
7:31 AM 5:10 PM
First Quarter, 54% visible
METAR KICT 071753Z 05016KT 10SM FEW055 OVC070 01/M09 A3027 RMK AO2 SLP260 T00111094 10017 20006 51017
Pressure 30.30 in
Visibility 10.0 miles
Clouds Few 5500 ft
Overcast 7000 ft
Windchill 27 °F
Dew Point 12 °F
Humidity 40%
Rainfall in
Snow Depth Not available.
7:31 AM 5:10 PM
First Quarter, 54% visible
METAR KICT 071753Z 05016KT 10SM FEW055 OVC070 01/M09 A3027 RMK AO2 SLP260 T00111094 10017 20006 51017

10-Day Weather Forecast

Almanac

Astronomy

Dec. 07, 2016 Rise Set
Actual Time
Civil Twilight
Nautical Twilight
Astronomical Twilight
Moon
Length of Visible Light
Length of Day
Tomorrow will be .
, % of the Moon is Illuminated

Today's Extremes

State Highs State Lows

Community

WunderPhotos

Upload Photos

1,956,156 photos uploaded!

WunderBlog® & News

Nearby

Air Quality

  Air Quality AQ Index Pollutant
Not available.

Snow Depth

Station Depth Elevation

Earthquake Activity

City Distance Mag. Time & Date
Minimum magnitude displayed is 2.5.

Coastal Water Temperatures

Place Temperature

Stations

Nearby Weather Stations

Station Location Temp. Windchill Dew Point Humidity Wind Precip. Elev Updated Type
                   

Watches & Warnings

There are currently no watches in effect.